createdAt,value
2019-02-06T00:00:13.852Z,81.46
2019-02-06T00:01:13.958Z,80.94
2019-02-06T00:02:14.181Z,81.15
2019-02-06T00:03:14.376Z,80.94
2019-02-06T00:04:15.563Z,80.32
2019-02-06T00:05:15.833Z,80.52
2019-02-06T00:06:14.991Z,80.52
2019-02-06T00:07:15.217Z,80.63
2019-02-06T00:08:15.550Z,80.21
2019-02-06T00:09:15.639Z,80.52
2019-02-06T00:10:15.821Z,79.90
2019-02-06T00:11:16.075Z,80.83
2019-02-06T00:12:16.286Z,80.21
2019-02-06T00:13:22.580Z,80.63
2019-02-06T00:14:16.723Z,80.42
2019-02-06T00:15:16.917Z,80.63
2019-02-06T00:16:17.229Z,81.35
2019-02-06T00:17:17.332Z,81.04
2019-02-06T00:18:17.502Z,80.63
2019-02-06T00:19:17.754Z,80.42
2019-02-06T00:20:17.923Z,79.90
2019-02-06T00:21:20.373Z,80.21
2019-02-06T00:22:18.341Z,80.83
2019-02-06T00:23:18.557Z,80.52
2019-02-06T00:24:18.797Z,79.90
2019-02-06T00:25:18.955Z,80.00
2019-02-06T00:26:19.164Z,79.86
2019-02-06T00:27:19.362Z,80.42
2019-02-06T00:28:19.563Z,79.13
2019-02-06T00:29:19.785Z,79.69
2019-02-06T00:30:19.978Z,79.44
2019-02-06T00:31:20.196Z,79.86
2019-02-06T00:32:20.445Z,79.13
2019-02-06T00:33:20.584Z,78.72
2019-02-06T00:34:20.827Z,79.27
2019-02-06T00:35:25.794Z,78.55
2019-02-06T00:36:22.242Z,78.96
2019-02-06T00:37:21.452Z,80.00
2019-02-06T00:38:21.639Z,79.69
2019-02-06T00:39:21.828Z,79.90
2019-02-06T00:40:22.306Z,79.80
2019-02-06T00:41:22.388Z,79.17
2019-02-06T00:42:22.490Z,78.75
2019-02-06T00:43:22.683Z,79.27
2019-02-06T00:44:22.889Z,79.90
2019-02-06T00:45:23.113Z,79.90
2019-02-06T00:46:23.300Z,78.65
2019-02-06T00:47:23.530Z,78.96
2019-02-06T00:48:23.715Z,78.96
2019-02-06T00:49:24.005Z,79.69
2019-02-06T00:50:24.130Z,79.48
2019-02-06T00:51:24.332Z,78.96
2019-02-06T00:52:24.561Z,79.38
2019-02-06T00:53:24.742Z,78.65
2019-02-06T00:54:24.955Z,78.96
2019-02-06T00:55:25.196Z,78.65
2019-02-06T00:56:25.381Z,79.27
2019-02-06T00:57:25.676Z,79.38
2019-02-06T00:58:25.772Z,79.17
2019-02-06T00:59:25.991Z,79.06
2019-02-06T01:00:26.245Z,78.75
2019-02-06T01:01:26.426Z,78.96
2019-02-06T01:02:26.659Z,78.75
2019-02-06T01:03:26.850Z,78.86
2019-02-06T01:04:27.059Z,78.75
2019-02-06T01:05:37.443Z,78.86
2019-02-06T01:06:28.433Z,78.13
2019-02-06T01:07:27.684Z,78.03
2019-02-06T01:08:27.866Z,78.34
2019-02-06T01:09:28.070Z,78.03
2019-02-06T01:10:28.336Z,77.86
2019-02-06T01:11:28.494Z,77.92
2019-02-06T01:12:28.704Z,77.72
2019-02-06T01:13:28.964Z,78.03
2019-02-06T01:14:29.309Z,77.72
2019-02-06T01:15:29.659Z,77.96
2019-02-06T01:16:29.547Z,78.34
2019-02-06T01:17:29.750Z,78.34
2019-02-06T01:18:29.957Z,78.23
2019-02-06T01:19:30.176Z,78.06
2019-02-06T01:20:30.454Z,77.96
2019-02-06T01:21:30.598Z,78.27
2019-02-06T01:22:30.887Z,78.58
2019-02-06T01:23:31.003Z,78.06
2019-02-06T01:24:31.211Z,78.17
2019-02-06T01:25:31.461Z,78.06
2019-02-06T01:26:31.618Z,78.13
2019-02-06T01:27:31.837Z,78.03
2019-02-06T01:28:32.011Z,78.75
2019-02-06T01:29:32.238Z,78.27
2019-02-06T01:30:32.606Z,77.86
2019-02-06T01:31:32.663Z,78.23
2019-02-06T01:32:32.910Z,77.92
2019-02-06T01:33:33.069Z,77.92
2019-02-06T01:34:33.293Z,78.44
2019-02-06T01:35:33.539Z,77.92
2019-02-06T01:36:33.714Z,77.65
2019-02-06T01:37:33.928Z,78.48
2019-02-06T01:38:34.167Z,77.86
2019-02-06T01:39:34.310Z,78.13
2019-02-06T01:40:34.589Z,78.13
2019-02-06T01:41:34.736Z,79.27
2019-02-06T01:42:35.205Z,77.82
2019-02-06T01:43:35.157Z,77.82
2019-02-06T01:44:35.354Z,78.17
2019-02-06T01:45:35.592Z,78.23
2019-02-06T01:46:35.805Z,78.23
2019-02-06T01:47:35.963Z,77.92
2019-02-06T01:48:36.168Z,77.92
2019-02-06T01:49:36.372Z,78.75
2019-02-06T01:50:36.640Z,78.23
2019-02-06T01:51:36.850Z,77.09
2019-02-06T01:52:37.012Z,76.78
2019-02-06T01:53:37.203Z,77.20
2019-02-06T01:54:37.437Z,77.20
2019-02-06T01:55:37.767Z,78.23
2019-02-06T01:56:37.805Z,77.92
2019-02-06T01:57:38.032Z,77.20
2019-02-06T01:58:38.245Z,77.61
2019-02-06T01:59:38.457Z,76.89
2019-02-06T02:00:38.746Z,76.68
2019-02-06T02:01:38.873Z,77.40
2019-02-06T02:02:39.064Z,78.13
2019-02-06T02:03:39.382Z,77.30
2019-02-06T02:04:39.502Z,77.09
2019-02-06T02:05:39.756Z,76.26
2019-02-06T02:06:39.903Z,77.20
2019-02-06T02:07:40.116Z,77.30
2019-02-06T02:08:40.349Z,77.51
2019-02-06T02:09:40.543Z,78.13
2019-02-06T02:10:40.794Z,77.30
2019-02-06T02:11:41.029Z,77.72
2019-02-06T02:12:41.134Z,77.30
2019-02-06T02:13:41.387Z,76.57
2019-02-06T02:14:41.577Z,76.57
2019-02-06T02:15:41.832Z,76.26
2019-02-06T02:16:41.978Z,76.99
2019-02-06T02:17:42.185Z,76.26
2019-02-06T02:18:42.399Z,76.37
2019-02-06T02:19:42.649Z,76.26
2019-02-06T02:20:42.854Z,76.40
2019-02-06T02:21:43.028Z,76.61
2019-02-06T02:22:43.227Z,76.92
2019-02-06T02:23:43.444Z,77.51
2019-02-06T02:24:43.612Z,77.86
2019-02-06T02:25:43.883Z,77.44
2019-02-06T02:26:44.039Z,77.51
2019-02-06T02:27:44.283Z,77.65
2019-02-06T02:28:44.629Z,78.06
2019-02-06T02:29:44.652Z,77.23
2019-02-06T02:30:44.925Z,77.23
2019-02-06T02:31:45.098Z,77.55
2019-02-06T02:32:45.292Z,76.92
2019-02-06T02:33:45.520Z,76.61
2019-02-06T02:34:45.708Z,76.89
2019-02-06T02:35:45.980Z,76.92
2019-02-06T02:36:46.242Z,76.82
2019-02-06T02:37:46.342Z,76.29
2019-02-06T02:38:46.568Z,76.29
2019-02-06T02:39:46.756Z,76.51
2019-02-06T02:40:46.989Z,76.29
2019-02-06T02:41:47.170Z,76.61
2019-02-06T02:42:47.392Z,76.51
2019-02-06T02:43:47.610Z,76.29
2019-02-06T02:44:47.914Z,76.16
2019-02-06T02:45:48.052Z,76.29
2019-02-06T02:46:48.223Z,77.20
2019-02-06T02:47:48.431Z,76.29
2019-02-06T02:48:48.653Z,76.51
2019-02-06T02:49:48.843Z,75.98
2019-02-06T02:50:49.085Z,76.29
2019-02-06T02:51:49.238Z,75.98
2019-02-06T02:52:49.526Z,76.61
2019-02-06T02:53:49.689Z,76.61
2019-02-06T02:54:49.883Z,76.29
2019-02-06T02:55:50.144Z,76.51
2019-02-06T02:56:50.296Z,77.03
2019-02-06T02:57:50.478Z,77.65
2019-02-06T02:58:50.723Z,76.72
2019-02-06T02:59:50.915Z,76.29
2019-02-06T03:00:51.191Z,76.61
2019-02-06T03:01:51.303Z,76.68
2019-02-06T03:02:51.503Z,76.37
2019-02-06T03:03:51.734Z,76.57
2019-02-06T03:04:51.935Z,76.19
2019-02-06T03:05:52.394Z,75.46
2019-02-06T03:06:52.363Z,75.26
2019-02-06T03:07:52.585Z,74.39
2019-02-06T03:08:52.814Z,73.80
2019-02-06T03:09:53.038Z,74.22
2019-02-06T03:10:53.231Z,74.60
2019-02-06T03:11:53.445Z,74.63
2019-02-06T03:12:53.636Z,74.22
2019-02-06T03:13:53.853Z,73.18
2019-02-06T03:14:54.065Z,73.49
2019-02-06T03:15:54.256Z,72.66
2019-02-06T03:16:54.549Z,72.73
2019-02-06T03:17:54.750Z,73.18
2019-02-06T03:18:54.872Z,74.01
2019-02-06T03:19:55.060Z,73.66
2019-02-06T03:20:55.280Z,72.94
2019-02-06T03:21:55.760Z,73.77
2019-02-06T03:22:55.691Z,73.35
2019-02-06T03:23:55.944Z,72.63
2019-02-06T03:24:56.117Z,72.63
2019-02-06T03:25:56.423Z,72.11
2019-02-06T03:26:56.541Z,71.69
2019-02-06T03:27:56.732Z,71.48
2019-02-06T03:28:56.945Z,71.07
2019-02-06T03:29:57.145Z,71.28
2019-02-06T03:30:57.337Z,70.97
2019-02-06T03:31:57.586Z,70.86
2019-02-06T03:32:57.800Z,71.07
2019-02-06T03:33:58.042Z,71.38
2019-02-06T03:34:58.161Z,71.24
2019-02-06T03:35:58.372Z,71.48
2019-02-06T03:36:58.603Z,71.48
2019-02-06T03:37:58.783Z,71.34
2019-02-06T03:38:59.016Z,71.17
2019-02-06T03:39:59.191Z,71.48
2019-02-06T03:40:59.403Z,71.48
2019-02-06T03:41:59.676Z,71.14
2019-02-06T03:42:59.796Z,71.45
2019-02-06T03:44:00.044Z,71.38
2019-02-06T03:45:00.289Z,71.14
2019-02-06T03:46:00.442Z,71.48
2019-02-06T03:47:00.683Z,72.31
2019-02-06T03:48:00.866Z,71.80
2019-02-06T03:49:01.062Z,72.07
2019-02-06T03:50:01.279Z,72.21
2019-02-06T03:51:01.587Z,72.11
2019-02-06T03:52:01.713Z,72.17
2019-02-06T03:53:01.875Z,72.49
2019-02-06T03:54:02.111Z,71.90
2019-02-06T03:55:02.325Z,71.90
2019-02-06T03:56:02.528Z,72.52
2019-02-06T03:57:02.764Z,73.25
2019-02-06T03:58:02.944Z,72.83
2019-02-06T03:59:03.251Z,72.94
2019-02-06T04:00:03.346Z,72.07
2019-02-06T04:01:03.553Z,72.59
2019-02-06T04:02:03.797Z,71.90
2019-02-06T04:03:03.965Z,71.69
2019-02-06T04:04:04.162Z,71.90
2019-02-06T04:05:04.368Z,72.21
2019-02-06T04:06:04.599Z,72.42
2019-02-06T04:07:04.920Z,72.11
2019-02-06T04:08:04.991Z,72.42
2019-02-06T04:09:05.200Z,72.42
2019-02-06T04:10:05.458Z,72.73
2019-02-06T04:11:05.632Z,72.83
2019-02-06T04:12:05.883Z,72.52
2019-02-06T04:13:06.045Z,72.83
2019-02-06T04:14:06.253Z,73.14
2019-02-06T04:15:06.518Z,73.46
2019-02-06T04:16:06.653Z,72.94
2019-02-06T04:17:06.900Z,73.49
2019-02-06T04:18:07.079Z,73.87
2019-02-06T04:19:07.288Z,73.14
2019-02-06T04:20:07.511Z,73.87
2019-02-06T04:21:07.702Z,73.87
2019-02-06T04:22:07.956Z,73.87
2019-02-06T04:23:08.156Z,73.91
2019-02-06T04:24:08.419Z,73.56
2019-02-06T04:25:08.590Z,74.01
2019-02-06T04:26:08.781Z,74.22
2019-02-06T04:27:09.038Z,74.01
2019-02-06T04:28:09.179Z,74.53
2019-02-06T04:29:09.401Z,74.11
2019-02-06T04:30:09.631Z,74.74
2019-02-06T04:31:09.832Z,75.05
2019-02-06T04:32:10.171Z,75.46
2019-02-06T04:33:10.231Z,75.57
2019-02-06T04:34:10.437Z,74.84
2019-02-06T04:35:10.668Z,75.46
2019-02-06T04:36:10.850Z,75.88
2019-02-06T04:37:11.115Z,76.40
2019-02-06T04:38:11.238Z,76.61
2019-02-06T04:39:11.463Z,76.40
2019-02-06T04:40:11.788Z,77.13
2019-02-06T04:41:11.898Z,77.96
2019-02-06T04:42:12.165Z,77.96
2019-02-06T04:43:12.287Z,78.38
2019-02-06T04:44:12.501Z,78.52
2019-02-06T04:45:12.757Z,78.72
2019-02-06T04:46:12.937Z,78.93
2019-02-06T04:47:13.183Z,78.93
2019-02-06T04:48:13.398Z,79.24
2019-02-06T04:49:13.536Z,79.45
2019-02-06T04:50:13.782Z,80.11
2019-02-06T04:51:13.975Z,80.32
2019-02-06T04:52:14.217Z,80.84
2019-02-06T04:53:14.380Z,81.29
2019-02-06T04:54:14.581Z,81.81
2019-02-06T04:55:14.796Z,81.92
2019-02-06T04:56:15.068Z,81.96
2019-02-06T04:57:15.224Z,82.03
2019-02-06T04:58:15.413Z,82.27
2019-02-06T04:59:15.629Z,83.04
2019-02-06T05:00:16.089Z,82.72
2019-02-06T05:01:16.029Z,83.31
2019-02-06T05:02:16.292Z,83.62
2019-02-06T05:03:16.460Z,84.08
2019-02-06T05:04:16.712Z,84.60
2019-02-06T05:05:16.930Z,84.81
2019-02-06T05:06:17.079Z,85.22
2019-02-06T05:07:19.155Z,84.84
2019-02-06T05:08:17.498Z,84.60
2019-02-06T05:09:17.694Z,85.58
2019-02-06T05:10:17.918Z,85.89
2019-02-06T05:11:18.113Z,85.16
2019-02-06T05:12:18.336Z,85.26
2019-02-06T05:13:18.656Z,85.68
2019-02-06T05:14:18.760Z,85.58
2019-02-06T05:15:18.971Z,86.51
2019-02-06T05:16:19.262Z,87.24
2019-02-06T05:17:19.349Z,86.97
2019-02-06T05:18:19.596Z,86.87
2019-02-06T05:19:19.799Z,86.87
2019-02-06T05:20:20.033Z,86.91
2019-02-06T05:21:20.307Z,87.32
2019-02-06T05:22:20.385Z,87.43
2019-02-06T05:23:20.638Z,87.95
2019-02-06T05:24:20.832Z,87.74
2019-02-06T05:25:21.091Z,87.84
2019-02-06T05:26:21.236Z,87.74
2019-02-06T05:27:21.441Z,88.20
2019-02-06T05:28:21.662Z,88.51
2019-02-06T05:29:21.909Z,88.72
2019-02-06T05:30:22.099Z,89.14
2019-02-06T05:31:22.271Z,88.93
2019-02-06T05:32:22.489Z,89.70
2019-02-06T05:33:22.733Z,89.70
2019-02-06T05:34:22.876Z,89.59
2019-02-06T05:35:23.113Z,89.91
2019-02-06T05:36:23.305Z,90.12
2019-02-06T05:37:31.507Z,90.58
2019-02-06T05:38:24.754Z,90.89
2019-02-06T05:39:23.914Z,90.89
2019-02-06T05:40:24.177Z,91.20
2019-02-06T05:41:24.358Z,90.78
2019-02-06T05:42:24.575Z,91.66
2019-02-06T05:43:24.812Z,91.87
2019-02-06T05:44:24.978Z,92.29
2019-02-06T05:45:25.229Z,92.82
2019-02-06T05:46:25.550Z,93.02
2019-02-06T05:47:25.601Z,92.92
2019-02-06T05:48:25.832Z,93.48
2019-02-06T05:49:26.011Z,93.23
2019-02-06T05:50:26.232Z,93.48
2019-02-06T05:51:26.412Z,93.23
2019-02-06T05:52:26.634Z,93.27
2019-02-06T05:53:26.870Z,94.21
2019-02-06T05:54:27.268Z,94.74
2019-02-06T05:55:27.260Z,94.32
2019-02-06T05:56:27.471Z,94.32
2019-02-06T05:57:27.690Z,94.42
2019-02-06T05:58:27.949Z,94.42
2019-02-06T05:59:28.110Z,93.90
2019-02-06T06:00:28.334Z,94.32
2019-02-06T06:01:28.518Z,94.21
2019-02-06T06:02:28.760Z,94.74
2019-02-06T06:03:28.945Z,94.78
2019-02-06T06:04:29.138Z,94.57
2019-02-06T06:05:29.359Z,95.20
2019-02-06T06:06:29.673Z,94.42
2019-02-06T06:07:29.736Z,94.74
2019-02-06T06:08:30.062Z,95.37
2019-02-06T06:09:30.166Z,95.51
2019-02-06T06:10:30.469Z,96.20
2019-02-06T06:11:30.582Z,96.35
2019-02-06T06:12:30.775Z,96.35
2019-02-06T06:13:35.637Z,96.35
2019-02-06T06:14:31.183Z,96.25
2019-02-06T06:15:31.426Z,96.10
2019-02-06T06:16:31.620Z,96.20
2019-02-06T06:17:31.815Z,96.31
2019-02-06T06:18:32.097Z,96.35
2019-02-06T06:19:32.254Z,96.25
2019-02-06T06:20:32.481Z,96.25
2019-02-06T06:21:32.654Z,96.04
2019-02-06T06:22:32.857Z,96.14
2019-02-06T06:23:33.096Z,96.04
2019-02-06T06:24:33.275Z,96.25
2019-02-06T06:25:33.457Z,96.25
2019-02-06T06:26:33.712Z,96.04
2019-02-06T06:27:33.990Z,96.04
2019-02-06T06:28:34.133Z,96.04
2019-02-06T06:29:34.294Z,96.04
2019-02-06T06:30:34.512Z,96.04
2019-02-06T06:31:34.752Z,96.19
2019-02-06T06:32:34.962Z,96.08
2019-02-06T06:33:35.187Z,96.25
2019-02-06T06:34:35.371Z,96.35
2019-02-06T06:35:35.677Z,96.35
2019-02-06T06:36:35.799Z,96.56
2019-02-06T06:37:35.990Z,96.50
2019-02-06T06:38:36.461Z,96.29
2019-02-06T06:39:36.403Z,96.61
2019-02-06T06:40:36.608Z,96.50
2019-02-06T06:41:36.815Z,96.81
2019-02-06T06:42:37.021Z,96.92
2019-02-06T06:43:37.313Z,96.81
2019-02-06T06:44:37.419Z,97.02
2019-02-06T06:45:37.632Z,97.23
2019-02-06T06:46:37.839Z,97.06
2019-02-06T06:47:38.030Z,97.17
2019-02-06T06:48:38.281Z,97.59
2019-02-06T06:49:38.460Z,97.75
2019-02-06T06:50:38.667Z,97.96
2019-02-06T06:51:38.978Z,97.96
2019-02-06T06:52:39.043Z,97.86
2019-02-06T06:53:39.306Z,97.96
2019-02-06T06:54:39.500Z,97.91
2019-02-06T06:55:39.708Z,97.96
2019-02-06T06:56:39.933Z,98.11
2019-02-06T06:57:40.126Z,97.91
2019-02-06T06:58:40.355Z,97.86
2019-02-06T06:59:40.568Z,98.01
2019-02-06T07:00:40.834Z,98.22
2019-02-06T07:01:40.968Z,97.75
2019-02-06T07:02:41.654Z,97.75
2019-02-06T07:03:41.396Z,97.65
2019-02-06T07:04:41.556Z,97.92
2019-02-06T07:05:41.783Z,97.75
2019-02-06T07:06:42.005Z,97.81
2019-02-06T07:07:42.198Z,98.13
2019-02-06T07:08:42.480Z,97.81
2019-02-06T07:09:42.612Z,97.71
2019-02-06T07:10:42.831Z,97.61
2019-02-06T07:11:43.046Z,97.81
2019-02-06T07:12:43.235Z,97.88
2019-02-06T07:13:43.469Z,97.83
2019-02-06T07:14:43.639Z,97.88
2019-02-06T07:15:43.868Z,97.72
2019-02-06T07:16:44.219Z,97.77
2019-02-06T07:17:44.279Z,97.72
2019-02-06T07:18:44.514Z,97.20
2019-02-06T07:19:44.684Z,96.78
2019-02-06T07:20:44.889Z,96.74
2019-02-06T07:21:45.126Z,96.53
2019-02-06T07:22:45.315Z,96.11
2019-02-06T07:23:45.562Z,95.80
2019-02-06T07:24:45.774Z,95.86
2019-02-06T07:25:45.903Z,94.96
2019-02-06T07:26:46.137Z,94.82
2019-02-06T07:27:46.343Z,95.03
2019-02-06T07:28:46.573Z,94.40
2019-02-06T07:29:46.757Z,93.98
2019-02-06T07:30:46.961Z,94.25
2019-02-06T07:31:47.192Z,93.00
2019-02-06T07:32:47.440Z,93.00
2019-02-06T07:33:47.591Z,92.22
2019-02-06T07:34:47.814Z,92.33
2019-02-06T07:35:48.019Z,92.54
2019-02-06T07:36:48.245Z,92.12
2019-02-06T07:37:48.435Z,92.12
2019-02-06T07:38:48.636Z,91.81
2019-02-06T07:39:48.866Z,91.50
2019-02-06T07:40:49.090Z,91.39
2019-02-06T07:41:49.396Z,91.71
2019-02-06T07:42:49.466Z,91.71
2019-02-06T07:43:49.702Z,91.81
2019-02-06T07:44:49.909Z,91.29
2019-02-06T07:45:50.107Z,90.97
2019-02-06T07:46:50.332Z,90.66
2019-02-06T07:47:50.520Z,90.14
2019-02-06T07:48:50.725Z,90.87
2019-02-06T07:49:51.086Z,90.35
2019-02-06T07:50:51.153Z,90.14
2019-02-06T07:51:51.382Z,90.25
2019-02-06T07:52:51.562Z,89.62
2019-02-06T07:53:51.783Z,89.51
2019-02-06T07:54:52.007Z,89.47
2019-02-06T07:55:52.197Z,89.41
2019-02-06T07:56:52.423Z,89.47
2019-02-06T07:57:52.675Z,89.16
2019-02-06T07:58:52.850Z,89.10
2019-02-06T07:59:53.018Z,88.95
2019-02-06T08:00:53.225Z,88.43
2019-02-06T08:01:53.441Z,88.43
2019-02-06T08:02:53.639Z,88.75
2019-02-06T08:03:53.868Z,88.18
2019-02-06T08:04:54.072Z,87.55
2019-02-06T08:05:54.327Z,87.91
2019-02-06T08:06:54.483Z,89.01
2019-02-06T08:07:54.709Z,88.70
2019-02-06T08:08:54.867Z,88.39
2019-02-06T08:09:55.102Z,88.14
2019-02-06T08:10:55.283Z,90.44
2019-02-06T08:11:55.491Z,91.68
2019-02-06T08:12:55.701Z,89.91
2019-02-06T08:13:56.003Z,89.29
2019-02-06T08:14:56.163Z,87.37
2019-02-06T08:15:56.300Z,86.65
2019-02-06T08:16:56.775Z,85.81
2019-02-06T08:17:56.748Z,86.85
2019-02-06T08:18:56.966Z,86.65
2019-02-06T08:19:57.198Z,86.85
2019-02-06T08:20:57.370Z,85.29
2019-02-06T08:21:57.605Z,85.50
2019-02-06T08:22:57.923Z,85.19
2019-02-06T08:23:58.027Z,85.98
2019-02-06T08:24:58.258Z,84.11
2019-02-06T08:25:58.442Z,83.90
2019-02-06T08:26:58.656Z,84.04
2019-02-06T08:27:58.851Z,84.11
2019-02-06T08:28:59.067Z,83.58
2019-02-06T08:29:59.283Z,83.75
2019-02-06T08:30:59.633Z,83.54
2019-02-06T08:31:59.668Z,83.65
2019-02-06T08:32:59.897Z,83.03
2019-02-06T08:34:00.099Z,82.09
2019-02-06T08:35:00.354Z,82.78
2019-02-06T08:36:00.514Z,83.03
2019-02-06T08:37:00.725Z,81.74
2019-02-06T08:38:00.942Z,81.95
2019-02-06T08:39:01.212Z,81.63
2019-02-06T08:40:01.354Z,81.63
2019-02-06T08:41:01.537Z,81.63
2019-02-06T08:42:01.752Z,81.01
2019-02-06T08:43:01.982Z,81.63
2019-02-06T08:44:02.177Z,81.12
2019-02-06T08:45:02.406Z,80.80
2019-02-06T08:46:02.603Z,80.77
2019-02-06T08:47:02.841Z,80.60
2019-02-06T08:48:03.013Z,80.98
2019-02-06T08:49:03.208Z,80.77
2019-02-06T08:50:03.441Z,80.66
2019-02-06T08:51:03.636Z,80.25
2019-02-06T08:52:03.858Z,79.97
2019-02-06T08:53:04.099Z,79.72
2019-02-06T08:54:04.272Z,79.62
2019-02-06T08:55:04.537Z,79.72
2019-02-06T08:56:04.756Z,79.83
2019-02-06T08:57:04.888Z,80.15
2019-02-06T08:58:05.174Z,79.41
2019-02-06T08:59:05.303Z,79.52
2019-02-06T09:00:05.529Z,79.27
2019-02-06T09:01:05.699Z,78.75
2019-02-06T09:02:05.926Z,78.75
2019-02-06T09:03:06.192Z,78.86
2019-02-06T09:04:06.544Z,78.34
2019-02-06T09:05:07.539Z,78.44
2019-02-06T09:06:06.752Z,77.92
2019-02-06T09:07:06.960Z,77.51
2019-02-06T09:08:07.224Z,77.51
2019-02-06T09:09:07.409Z,78.13
2019-02-06T09:10:07.642Z,77.92
2019-02-06T09:11:07.825Z,77.92
2019-02-06T09:12:08.323Z,78.03
2019-02-06T09:13:08.248Z,77.61
2019-02-06T09:14:08.424Z,77.26
2019-02-06T09:15:08.654Z,77.16
2019-02-06T09:16:08.836Z,77.06
2019-02-06T09:17:09.025Z,76.85
2019-02-06T09:18:09.251Z,76.09
2019-02-06T09:19:09.456Z,76.40
2019-02-06T09:20:09.723Z,76.71
2019-02-06T09:21:09.849Z,75.78
2019-02-06T09:22:10.075Z,75.78
2019-02-06T09:23:10.269Z,75.88
2019-02-06T09:24:10.461Z,75.67
2019-02-06T09:25:10.718Z,75.43
2019-02-06T09:26:10.878Z,75.02
2019-02-06T09:27:11.098Z,74.81
2019-02-06T09:28:11.356Z,74.11
2019-02-06T09:29:11.513Z,74.19
2019-02-06T09:30:11.854Z,74.50
2019-02-06T09:31:11.928Z,74.81
2019-02-06T09:32:12.132Z,74.40
2019-02-06T09:33:12.358Z,74.60
2019-02-06T09:34:12.554Z,73.98
2019-02-06T09:35:12.791Z,73.88
2019-02-06T09:36:12.978Z,74.26
2019-02-06T09:37:13.295Z,74.26
2019-02-06T09:38:13.407Z,73.84
2019-02-06T09:39:13.598Z,73.98
2019-02-06T09:40:13.828Z,74.36
2019-02-06T09:41:14.009Z,73.63
2019-02-06T09:42:14.214Z,73.32
2019-02-06T09:43:14.439Z,73.74
2019-02-06T09:44:14.627Z,72.80
2019-02-06T09:45:14.956Z,73.53
2019-02-06T09:46:15.034Z,73.01
2019-02-06T09:47:15.248Z,72.91
2019-02-06T09:48:15.474Z,73.94
2019-02-06T09:49:15.665Z,73.11
2019-02-06T09:50:15.887Z,72.88
2019-02-06T09:51:16.059Z,72.67
2019-02-06T09:52:16.286Z,72.77
2019-02-06T09:53:16.816Z,72.77
2019-02-06T09:54:16.696Z,73.18
2019-02-06T09:55:16.893Z,73.18
2019-02-06T09:56:17.116Z,72.36
2019-02-06T09:57:17.305Z,72.11
2019-02-06T09:58:17.542Z,72.11
2019-02-06T09:59:17.737Z,72.01
2019-02-06T10:00:17.939Z,71.70
2019-02-06T10:01:21.268Z,71.70
2019-02-06T10:02:18.333Z,71.56
2019-02-06T10:03:18.582Z,71.28
2019-02-06T10:04:18.783Z,71.15
2019-02-06T10:05:18.987Z,71.18
2019-02-06T10:06:19.237Z,71.04
2019-02-06T10:07:19.412Z,70.94
2019-02-06T10:08:19.630Z,71.04
2019-02-06T10:09:22.901Z,70.63
2019-02-06T10:10:20.079Z,69.80
2019-02-06T10:11:20.258Z,70.60
2019-02-06T10:12:20.443Z,70.50
2019-02-06T10:13:20.670Z,69.87
2019-02-06T10:14:20.853Z,70.18
2019-02-06T10:15:21.062Z,69.98
2019-02-06T10:16:21.302Z,69.87
2019-02-06T10:17:21.484Z,69.87
2019-02-06T10:18:21.799Z,69.56
2019-02-06T10:19:21.896Z,69.87
2019-02-06T10:20:22.182Z,69.56
2019-02-06T10:21:22.356Z,69.56
2019-02-06T10:22:22.539Z,69.87
2019-02-06T10:23:22.919Z,69.77
2019-02-06T10:24:22.940Z,68.84
2019-02-06T10:25:23.143Z,69.22
2019-02-06T10:26:23.495Z,68.70
2019-02-06T10:27:24.123Z,68.74
2019-02-06T10:28:24.309Z,69.15
2019-02-06T10:29:23.947Z,69.22
2019-02-06T10:30:24.177Z,69.53
2019-02-06T10:31:24.426Z,69.32
2019-02-06T10:32:24.608Z,69.32
2019-02-06T10:33:24.831Z,68.70
2019-02-06T10:34:25.064Z,68.70
2019-02-06T10:35:25.195Z,69.01
2019-02-06T10:36:25.455Z,68.80
2019-02-06T10:37:25.641Z,68.70
2019-02-06T10:38:25.864Z,68.60
2019-02-06T10:39:34.331Z,69.12
2019-02-06T10:40:27.259Z,68.91
2019-02-06T10:41:26.487Z,68.70
2019-02-06T10:42:26.690Z,69.32
2019-02-06T10:43:32.048Z,69.46
2019-02-06T10:44:28.084Z,68.91
2019-02-06T10:45:27.285Z,68.49
2019-02-06T10:46:27.530Z,69.01
2019-02-06T10:47:27.682Z,68.36
2019-02-06T10:48:27.910Z,68.23
2019-02-06T10:49:28.111Z,67.22
2019-02-06T10:50:28.338Z,67.50
2019-02-06T10:51:28.635Z,67.19
2019-02-06T10:52:28.716Z,67.09
2019-02-06T10:53:28.941Z,66.13
2019-02-06T10:54:29.152Z,66.13
2019-02-06T10:55:29.372Z,65.92
2019-02-06T10:56:29.598Z,65.82
2019-02-06T10:57:29.778Z,65.82
2019-02-06T10:58:29.971Z,65.58
2019-02-06T10:59:30.298Z,65.69
2019-02-06T11:00:30.434Z,65.27
2019-02-06T11:01:30.669Z,65.58
2019-02-06T11:02:30.844Z,65.45
2019-02-06T11:03:31.043Z,64.62
2019-02-06T11:04:31.281Z,64.80
2019-02-06T11:05:31.493Z,64.70
2019-02-06T11:06:31.725Z,63.97
2019-02-06T11:07:31.970Z,63.35
2019-02-06T11:08:32.090Z,63.22
2019-02-06T11:09:32.325Z,63.74
2019-02-06T11:10:32.538Z,63.22
2019-02-06T11:11:32.743Z,61.98
2019-02-06T11:12:32.927Z,61.50
2019-02-06T11:13:33.134Z,61.80
2019-02-06T11:14:33.351Z,61.50
2019-02-06T11:15:33.605Z,62.63
2019-02-06T11:16:33.752Z,61.57
2019-02-06T11:17:33.959Z,61.98
2019-02-06T11:18:34.157Z,61.47
2019-02-06T11:19:34.377Z,61.78
2019-02-06T11:20:34.553Z,61.78
2019-02-06T11:21:34.771Z,60.95
2019-02-06T11:22:34.989Z,61.78
2019-02-06T11:23:35.228Z,61.98
2019-02-06T11:24:35.443Z,61.44
2019-02-06T11:25:35.589Z,61.75
2019-02-06T11:26:35.812Z,60.93
2019-02-06T11:27:36.020Z,60.51
2019-02-06T11:28:36.210Z,60.82
2019-02-06T11:29:36.440Z,59.89
2019-02-06T11:30:36.636Z,60.00
2019-02-06T11:31:36.867Z,60.41
2019-02-06T11:32:37.143Z,60.82
2019-02-06T11:33:37.476Z,60.31
2019-02-06T11:34:37.475Z,60.21
2019-02-06T11:35:37.659Z,60.10
2019-02-06T11:36:37.884Z,60.61
2019-02-06T11:37:38.084Z,59.89
2019-02-06T11:38:38.274Z,60.61
2019-02-06T11:39:38.515Z,60.17
2019-02-06T11:40:38.814Z,60.10
2019-02-06T11:41:38.909Z,59.56
2019-02-06T11:42:39.110Z,59.45
2019-02-06T11:43:39.337Z,59.04
2019-02-06T11:44:39.567Z,60.00
2019-02-06T11:45:39.762Z,59.38
2019-02-06T11:46:39.975Z,60.17
2019-02-06T11:47:40.161Z,59.35
2019-02-06T11:48:43.220Z,59.35
2019-02-06T11:49:40.581Z,59.66
2019-02-06T11:50:40.795Z,58.42
2019-02-06T11:51:41.004Z,58.60
2019-02-06T11:52:41.203Z,59.22
2019-02-06T11:53:41.389Z,59.01
2019-02-06T11:54:41.625Z,58.50
2019-02-06T11:55:41.833Z,58.60
2019-02-06T11:56:42.097Z,59.56
2019-02-06T11:57:42.237Z,58.50
2019-02-06T11:58:42.436Z,59.77
2019-02-06T11:59:42.650Z,59.42
2019-02-06T12:00:42.846Z,58.26
2019-02-06T12:01:43.058Z,59.12
2019-02-06T12:02:43.282Z,58.81
2019-02-06T12:03:43.472Z,58.91
2019-02-06T12:04:43.822Z,59.42
2019-02-06T12:05:43.925Z,59.12
2019-02-06T12:06:44.083Z,59.56
2019-02-06T12:07:44.323Z,59.45
2019-02-06T12:08:44.522Z,60.07
2019-02-06T12:09:44.750Z,60.38
2019-02-06T12:10:44.926Z,60.59
2019-02-06T12:11:45.145Z,59.56
2019-02-06T12:12:45.410Z,59.45
2019-02-06T12:13:51.219Z,60.28
2019-02-06T12:14:45.797Z,60.17
2019-02-06T12:15:45.981Z,59.35
2019-02-06T12:16:46.217Z,60.07
2019-02-06T12:17:46.488Z,59.56
2019-02-06T12:18:46.887Z,59.86
2019-02-06T12:19:46.856Z,58.94
2019-02-06T12:20:47.039Z,59.45
2019-02-06T12:21:47.373Z,59.66
2019-02-06T12:22:47.501Z,59.56
2019-02-06T12:23:48.206Z,59.14
2019-02-06T12:24:47.906Z,59.38
2019-02-06T12:25:48.080Z,59.17
2019-02-06T12:26:48.274Z,59.58
2019-02-06T12:27:48.991Z,59.58
2019-02-06T12:28:48.705Z,59.69
2019-02-06T12:29:48.991Z,59.38
2019-02-06T12:30:49.500Z,59.58
2019-02-06T12:31:49.313Z,60.21
2019-02-06T12:32:52.292Z,60.31
2019-02-06T12:33:49.925Z,59.35
2019-02-06T12:34:49.944Z,59.48
2019-02-06T12:35:50.139Z,58.94
2019-02-06T12:36:50.350Z,59.77
2019-02-06T12:37:50.596Z,59.45
2019-02-06T12:38:53.611Z,59.14
2019-02-06T12:39:50.973Z,59.77
2019-02-06T12:40:52.008Z,59.25
2019-02-06T12:41:51.378Z,58.97
2019-02-06T12:42:51.604Z,59.14
2019-02-06T12:43:51.799Z,59.79
2019-02-06T12:44:51.992Z,59.79
2019-02-06T12:45:52.287Z,59.86
2019-02-06T12:46:52.482Z,60.07
2019-02-06T12:47:52.725Z,60.07
2019-02-06T12:48:52.806Z,60.21
2019-02-06T12:49:53.033Z,59.58
2019-02-06T12:50:53.238Z,59.79
2019-02-06T12:51:53.457Z,60.41
2019-02-06T12:52:53.694Z,60.31
2019-02-06T12:53:53.872Z,60.21
2019-02-06T12:54:54.205Z,60.10